Sioux Gateway Col. Bud Day Field
KSUX : now visible

Airfield :











YOU CAN JOIN US ON...

 
LOGIN :

Register | Disclaimer

   EN    FR    IT 

 









Legend :    VFR   Marginal VFR   IFR   Intensive IFR   Very Intensive IFR
Visi :
Ceiling :
>= 8 km
>= 3000ft
5 to 8 km
1000 to 3000 ft
1500m to 5 km
500 to 1000 ft
800 to 1500m
200 to 500 ft
< 800m
< 200 ft
Symbols :   Thunderstorms  Fog  Heavy snow  Heavy precipitations  Wind > 20 kt






- Airport Elevation : 1098 ft
- IATA code : SUX


KSUX - Sioux Gateway Col. Bud Day Field

CURRENT METAR :
  • 250852Z AUTO 29008KT 10SM BKN009 OVC025 A3005 RMK AO2 SLPNO 53002 $

EXPIRED METARs :
  • 250817Z AUTO 32007KT 10SM BKN008 OVC025 M03/M05 A3005 RMK AO2 T10331050 $
  • 250752Z AUTO 31008KT 10SM FEW008 OVC024 M03/M04 A3004 RMK AO2 SLP187 T10331044 $
  • 250652Z AUTO 32009KT 10SM OVC008 M03/M04 A3005 RMK AO2 SLP189 T10281044 $

TAF KSUX
Valid from the 25 at 07:00 until the 26 at 06:00 UTC


250636Z 2507/2606 32007KT 6SM BR OVC008
FM251000 29005KT 1SM BR OVC004
FM251800 VRB05KT 6SM BR BKN010



MET'MAP, your aeronautical weather chart ! - Copyright ORBIFLY December 2007 - Disclaimer

ORBIFLY MET'MAP TEAM :

Programming & Development : Alexandra Zaïnal
Concept & original design : Baudouin d'Aumeries
Assistance for programming : Marc-Olivier Méhu
Technical & hardware support : Manuel Goepfert

Contact : metmap@orbifly.com




SOURCES & CREDITS :

   NOAA       Earth
Advisory